Time;durP1;ratioP1;P1;durP2;ratioP2;P2;SDS_P1;SDS_P2;PMS_P1;PMS_P2;Temp;Humidity;BMP_temperature;BMP_pressure;BME280_temperature;BME280_humidity;BME280_pressure;Samples;Min_cycle;Max_cycle;Signal;HPM_P1;HPM_P2
2021/03/06 00:02:04;;;;;;;13.17;8.80;;;5.00;99.90;;;;;;5095475;28;20176;-68
2021/03/06 00:04:30;;;;;;;11.37;8.43;;;5.00;99.90;;;;;;5095549;28;20196;-65
2021/03/06 00:06:56;;;;;;;14.37;8.50;;;5.00;99.90;;;;;;5095394;28;20177;-68
2021/03/06 00:09:21;;;;;;;11.43;9.50;;;5.00;99.90;;;;;;5093992;28;20206;-66
2021/03/06 00:11:47;;;;;;;12.57;8.23;;;5.00;99.90;;;;;;5095317;28;20638;-65
2021/03/06 00:14:13;;;;;;;10.73;7.65;;;4.90;99.90;;;;;;5093858;28;20196;-65
2021/03/06 00:16:38;;;;;;;12.27;8.70;;;4.90;99.90;;;;;;5093870;28;20172;-67
2021/03/06 00:19:04;;;;;;;13.23;7.57;;;5.00;99.90;;;;;;5095111;28;20208;-65
2021/03/06 00:21:30;;;;;;;12.40;8.00;;;5.00;99.90;;;;;;5095025;28;20649;-68
2021/03/06 00:23:55;;;;;;;11.60;7.93;;;5.00;99.90;;;;;;5094348;28;20196;-67
2021/03/06 00:26:21;;;;;;;8.83;7.73;;;5.00;99.90;;;;;;5094929;28;20180;-67
2021/03/06 00:28:47;;;;;;;8.97;7.20;;;5.00;99.90;;;;;;5093522;28;20204;-67
2021/03/06 00:31:12;;;;;;;11.90;7.60;;;5.00;99.90;;;;;;5094924;28;20383;-68
2021/03/06 00:33:38;;;;;;;9.97;7.00;;;4.90;99.90;;;;;;5094768;28;20197;-68
2021/03/06 00:36:04;;;;;;;11.37;7.43;;;5.00;99.90;;;;;;5094880;28;20178;-66
2021/03/06 00:38:29;;;;;;;11.33;6.97;;;5.00;99.90;;;;;;5094319;28;20208;-65
2021/03/06 00:40:55;;;;;;;9.33;7.30;;;4.90;99.90;;;;;;5094809;28;20484;-66
2021/03/06 00:43:21;;;;;;;7.53;5.77;;;4.90;99.90;;;;;;5094605;28;20205;-65
2021/03/06 00:45:46;;;;;;;10.97;6.47;;;4.90;99.90;;;;;;5094637;28;20274;-67
2021/03/06 00:48:12;;;;;;;10.07;6.90;;;4.90;99.90;;;;;;5094608;28;20557;-67
2021/03/06 00:50:38;;;;;;;9.60;7.00;;;4.90;99.90;;;;;;5093186;28;20575;-67
2021/03/06 00:53:03;;;;;;;8.67;6.47;;;4.80;99.90;;;;;;5094432;28;20201;-68
2021/03/06 00:55:29;;;;;;;12.60;7.60;;;4.80;99.90;;;;;;5094362;28;20221;-68
2021/03/06 00:57:55;;;;;;;10.20;6.90;;;4.80;99.90;;;;;;5094269;28;20199;-67
2021/03/06 01:00:21;;;;;;;11.83;7.63;;;4.70;99.90;;;;;;5094482;28;20450;-69
2021/03/06 01:02:47;;;;;;;10.07;7.30;;;4.70;99.90;;;;;;5094187;28;20421;-65
2021/03/06 01:05:13;;;;;;;10.93;6.57;;;4.70;99.90;;;;;;5093233;28;20420;-65
2021/03/06 01:07:39;;;;;;;9.73;6.50;;;4.70;99.90;;;;;;5094209;28;20164;-65
2021/03/06 01:10:21;;;;;;;10.27;7.07;;;4.70;99.90;;;;;;5093141;28;20195;-65
2021/03/06 01:12:47;;;;;;;8.20;5.72;;;4.70;99.90;;;;;;5094071;28;20385;-67
2021/03/06 01:15:13;;;;;;;8.23;6.20;;;4.60;99.90;;;;;;5094620;28;20184;-65
2021/03/06 01:17:38;;;;;;;7.40;5.17;;;4.70;99.90;;;;;;5094005;28;20165;-66
2021/03/06 01:20:05;;;;;;;7.17;5.57;;;4.70;99.90;;;;;;5094465;28;20476;-67
2021/03/06 01:22:32;;;;;;;8.32;5.10;;;4.60;99.90;;;;;;5093937;28;20661;-68
2021/03/06 01:24:57;;;;;;;8.25;5.90;;;4.60;99.90;;;;;;5094339;28;20662;-66
2021/03/06 01:27:23;;;;;;;7.63;5.43;;;4.70;99.90;;;;;;5093990;28;20213;-67
2021/03/06 01:29:49;;;;;;;6.67;4.93;;;4.60;99.90;;;;;;5094206;28;20200;-68
2021/03/06 01:32:14;;;;;;;7.30;5.50;;;4.70;99.90;;;;;;5093997;28;20176;-66
2021/03/06 01:34:40;;;;;;;6.30;5.40;;;4.70;99.90;;;;;;5093839;28;20192;-66
2021/03/06 01:37:06;;;;;;;8.40;5.53;;;4.60;99.90;;;;;;5093832;28;20177;-66
2021/03/06 01:39:31;;;;;;;6.67;5.23;;;4.70;99.90;;;;;;5093311;28;20220;-68
2021/03/06 01:41:57;;;;;;;7.33;5.30;;;4.60;99.90;;;;;;5093812;28;20235;-67
2021/03/06 01:44:23;;;;;;;7.83;5.40;;;4.60;99.90;;;;;;5092444;28;20650;-67
2021/03/06 01:46:50;;;;;;;6.50;5.83;;;4.50;99.90;;;;;;5093786;28;20184;-67
2021/03/06 01:49:15;;;;;;;7.82;5.18;;;4.50;99.90;;;;;;5094004;28;20436;-65
2021/03/06 01:51:42;;;;;;;7.10;5.53;;;4.50;99.90;;;;;;5093745;28;20165;-68
2021/03/06 01:54:09;;;;;;;7.35;5.15;;;4.50;99.90;;;;;;5093887;28;20203;-66
2021/03/06 01:56:35;;;;;;;9.50;5.88;;;4.50;99.90;;;;;;5093615;28;20183;-68
2021/03/06 01:59:01;;;;;;;8.00;5.63;;;4.50;99.90;;;;;;5093673;28;20220;-68
2021/03/06 02:01:27;;;;;;;6.78;5.40;;;4.50;99.90;;;;;;5093693;28;20196;-68
2021/03/06 02:03:52;;;;;;;8.40;6.37;;;4.50;99.90;;;;;;5093698;28;20704;-68
2021/03/06 02:06:18;;;;;;;17.40;8.77;;;4.50;99.90;;;;;;5093532;28;20181;-68
2021/03/06 02:08:46;;;;;;;18.23;9.20;;;4.50;99.90;;;;;;5092173;28;20196;-66
2021/03/06 02:11:24;;;;;;;11.30;7.03;;;4.50;99.90;;;;;;5093502;28;20410;-68
2021/03/06 02:14:18;;;;;;;9.65;6.13;;;4.50;99.90;;;;;;5093576;28;20732;-66
2021/03/06 02:16:50;;;;;;;7.38;5.53;;;4.50;99.90;;;;;;5093521;28;20538;-66
2021/03/06 02:19:43;;;;;;;7.88;5.53;;;4.40;99.90;;;;;;5092182;28;20220;-66
2021/03/06 02:22:27;;;;;;;7.38;5.38;;;4.40;99.90;;;;;;5093487;28;20175;-68
2021/03/06 02:25:24;;;;;;;10.00;5.25;;;4.40;99.90;;;;;;5093761;28;20202;-66
2021/03/06 02:28:12;;;;;;;11.23;5.88;;;4.40;99.90;;;;;;5093428;28;20673;-66
2021/03/06 02:30:39;;;;;;;6.60;4.97;;;4.40;99.90;;;;;;5093392;28;20169;-66
2021/03/06 02:33:05;;;;;;;7.15;5.40;;;4.40;99.90;;;;;;5093145;28;20232;-68
2021/03/06 02:35:33;;;;;;;8.00;5.90;;;4.40;99.90;;;;;;5093344;28;20173;-68
2021/03/06 02:38:10;;;;;;;6.10;5.10;;;4.40;99.90;;;;;;5093122;28;20265;-69
2021/03/06 02:40:38;;;;;;;5.80;5.05;;;4.40;99.90;;;;;;5091733;28;20224;-65
2021/03/06 02:43:08;;;;;;;8.85;4.75;;;4.40;99.90;;;;;;5093078;28;20196;-69
2021/03/06 02:45:34;;;;;;;9.13;5.40;;;4.50;99.90;;;;;;5093215;28;20173;-66
2021/03/06 02:48:01;;;;;;;7.20;5.07;;;4.30;99.90;;;;;;5096246;28;20192;-68
2021/03/06 02:50:26;;;;;;;8.18;4.78;;;4.30;99.90;;;;;;5095521;28;20180;-66
2021/03/06 02:52:52;;;;;;;8.40;5.90;;;4.20;99.90;;;;;;5096772;28;20537;-67
2021/03/06 02:55:18;;;;;;;5.50;4.50;;;4.20;99.90;;;;;;5097195;28;20222;-68
2021/03/06 02:58:21;;;;;;;4.37;3.97;;;4.10;99.90;;;;;;5095331;28;20172;-68
2021/03/06 03:01:03;;;;;;;6.18;4.35;;;4.00;99.90;;;;;;5095311;28;20715;-65
2021/03/06 03:03:56;;;;;;;5.90;4.78;;;4.00;99.90;;;;;;5096519;28;20673;-66
2021/03/06 03:06:46;;;;;;;5.43;4.55;;;3.90;99.90;;;;;;5096605;28;20164;-66
2021/03/06 03:09:21;;;;;;;4.97;3.78;;;3.90;99.90;;;;;;5096746;28;20203;-66
2021/03/06 03:12:13;;;;;;;7.82;5.70;;;3.80;99.90;;;;;;5096479;28;20168;-68
2021/03/06 03:14:58;;;;;;;13.43;9.85;;;3.90;99.90;;;;;;5096552;28;20196;-67
2021/03/06 03:17:32;;;;;;;5.63;5.03;;;3.80;99.90;;;;;;5096083;28;20181;-66
2021/03/06 03:20:27;;;;;;;8.55;4.38;;;3.70;99.90;;;;;;5096208;28;20302;-69
2021/03/06 03:22:59;;;;;;;5.22;4.10;;;3.80;99.90;;;;;;5096278;28;20165;-66
2021/03/06 03:25:27;;;;;;;5.90;3.72;;;3.90;99.90;;;;;;5096266;28;20693;-68
2021/03/06 03:27:54;;;;;;;7.22;4.18;;;3.90;99.90;;;;;;5096054;28;20598;-65
2021/03/06 03:30:21;;;;;;;5.90;4.32;;;3.90;99.90;;;;;;5096513;28;20183;-69
2021/03/06 03:32:50;;;;;;;6.30;4.32;;;3.90;99.90;;;;;;5095962;28;20191;-67
2021/03/06 03:35:18;;;;;;;5.45;3.95;;;3.90;99.90;;;;;;5096610;28;20181;-67
2021/03/06 03:37:45;;;;;;;8.63;4.63;;;4.00;99.90;;;;;;5094623;28;20168;-65
2021/03/06 03:40:16;;;;;;;7.63;5.40;;;3.90;99.90;;;;;;5095842;28;20247;-65
2021/03/06 03:42:42;;;;;;;4.45;3.63;;;4.00;99.90;;;;;;5095849;28;20161;-67
2021/03/06 03:45:10;;;;;;;7.20;4.00;;;4.00;99.90;;;;;;5095776;28;20610;-66
2021/03/06 03:47:38;;;;;;;6.75;4.97;;;4.00;99.90;;;;;;5095727;28;20210;-68
2021/03/06 03:50:07;;;;;;;5.90;4.57;;;4.10;99.90;;;;;;5096147;28;20180;-68
2021/03/06 03:52:40;;;;;;;4.85;3.90;;;4.10;99.90;;;;;;5095707;28;20157;-66
2021/03/06 03:55:07;;;;;;;5.35;4.80;;;4.10;99.90;;;;;;5096189;28;20588;-66
2021/03/06 03:57:34;;;;;;;5.93;4.50;;;4.10;99.90;;;;;;5095487;28;20534;-67
2021/03/06 04:00:02;;;;;;;5.65;4.90;;;4.10;99.90;;;;;;5095900;28;20222;-65
2021/03/06 04:02:28;;;;;;;8.57;5.05;;;4.10;99.90;;;;;;5095420;28;20255;-66
2021/03/06 04:04:55;;;;;;;7.90;4.70;;;4.10;99.90;;;;;;5095707;28;20232;-67
2021/03/06 04:07:21;;;;;;;6.53;5.10;;;4.00;99.90;;;;;;5094081;28;20433;-67
2021/03/06 04:09:47;;;;;;;5.23;4.50;;;4.00;99.90;;;;;;5095168;28;20236;-66
2021/03/06 04:12:13;;;;;;;5.30;4.68;;;4.00;99.90;;;;;;5095335;28;20169;-66
2021/03/06 04:14:38;;;;;;;7.50;5.40;;;4.00;99.90;;;;;;5095433;28;20205;-65
2021/03/06 04:17:04;;;;;;;7.50;5.33;;;3.90;99.90;;;;;;5095299;28;20581;-68
2021/03/06 04:19:30;;;;;;;7.60;4.70;;;3.90;99.90;;;;;;5095281;28;20220;-66
2021/03/06 04:21:55;;;;;;;7.57;5.07;;;3.80;99.90;;;;;;5095151;28;20401;-67
2021/03/06 04:24:21;;;;;;;9.23;5.63;;;3.80;99.90;;;;;;5094924;28;20192;-66
2021/03/06 04:26:49;;;;;;;10.55;6.38;;;3.80;99.90;;;;;;5095012;28;20676;-66
2021/03/06 04:29:16;;;;;;;8.52;6.18;;;3.80;99.90;;;;;;5093676;28;20573;-66
2021/03/06 04:31:42;;;;;;;7.65;6.60;;;3.70;99.90;;;;;;5093558;28;20695;-66
2021/03/06 04:34:09;;;;;;;9.20;6.90;;;3.70;99.90;;;;;;5094962;28;20283;-68
2021/03/06 04:36:35;;;;;;;9.63;7.50;;;3.70;99.90;;;;;;5093501;28;20180;-67
2021/03/06 04:39:01;;;;;;;10.80;7.87;;;3.70;99.90;;;;;;5094397;28;20228;-66
2021/03/06 04:41:26;;;;;;;13.57;8.80;;;3.60;99.90;;;;;;5094822;28;20239;-68
2021/03/06 04:43:52;;;;;;;10.03;7.57;;;3.60;99.90;;;;;;5093314;28;20201;-65
2021/03/06 04:46:18;;;;;;;8.93;7.53;;;3.60;99.90;;;;;;5094659;28;20186;-66
2021/03/06 04:48:43;;;;;;;11.37;8.10;;;3.60;99.90;;;;;;5094555;28;20204;-65
2021/03/06 04:51:09;;;;;;;10.37;7.67;;;3.50;99.90;;;;;;5094540;28;20533;-66
2021/03/06 04:53:34;;;;;;;12.30;8.40;;;3.60;99.90;;;;;;5093130;28;20205;-66
2021/03/06 04:56:00;;;;;;;13.17;8.30;;;3.60;99.90;;;;;;5094550;28;20247;-67
2021/03/06 04:58:26;;;;;;;10.37;8.07;;;3.60;99.90;;;;;;5094423;28;20211;-66
2021/03/06 05:00:51;;;;;;;8.57;7.67;;;3.60;99.90;;;;;;5094570;28;20200;-67
2021/03/06 05:03:17;;;;;;;13.60;8.27;;;3.60;99.90;;;;;;5094285;28;20571;-69
2021/03/06 05:05:42;;;;;;;12.73;8.80;;;3.60;99.90;;;;;;5092937;28;20238;-68
2021/03/06 05:08:08;;;;;;;11.80;8.23;;;3.60;99.90;;;;;;5094195;28;20586;-66
2021/03/06 05:10:34;;;;;;;10.60;7.73;;;3.60;99.90;;;;;;5093796;28;20176;-66
2021/03/06 05:12:59;;;;;;;10.40;7.83;;;3.60;99.90;;;;;;5094062;28;20200;-65
2021/03/06 05:15:25;;;;;;;11.03;8.57;;;3.60;99.90;;;;;;5094160;28;20218;-65
2021/03/06 05:17:50;;;;;;;13.40;8.60;;;3.60;99.90;;;;;;5094109;28;20281;-65
2021/03/06 05:20:16;;;;;;;12.67;8.70;;;3.60;99.90;;;;;;5093060;28;20665;-65
2021/03/06 05:22:42;;;;;;;12.07;8.93;;;3.60;99.90;;;;;;5093994;28;20164;-66
2021/03/06 05:25:08;;;;;;;11.70;8.30;;;3.50;99.90;;;;;;5094662;28;20237;-66
2021/03/06 05:27:34;;;;;;;11.85;8.70;;;3.60;99.90;;;;;;5093868;28;20168;-68
2021/03/06 05:30:00;;;;;;;11.27;8.27;;;3.60;99.90;;;;;;5094418;28;20247;-65
2021/03/06 05:32:26;;;;;;;11.73;8.27;;;3.60;99.90;;;;;;5093942;28;20204;-66
2021/03/06 05:34:51;;;;;;;11.40;8.60;;;3.60;99.90;;;;;;5094125;28;20270;-68
2021/03/06 05:37:17;;;;;;;11.77;8.50;;;3.60;99.90;;;;;;5093999;28;20173;-67
2021/03/06 05:39:43;;;;;;;10.43;7.77;;;3.60;99.90;;;;;;5092228;28;20577;-65
2021/03/06 05:42:10;;;;;;;11.50;9.50;;;3.60;99.90;;;;;;5092589;28;20620;-68
2021/03/06 05:44:37;;;;;;;13.02;8.95;;;3.70;99.90;;;;;;5093042;28;20207;-65
2021/03/06 05:47:04;;;;;;;12.20;8.85;;;3.60;99.90;;;;;;5092929;28;20564;-65
2021/03/06 05:49:30;;;;;;;10.80;8.15;;;3.60;99.90;;;;;;5093037;28;20373;-67
2021/03/06 05:51:57;;;;;;;14.23;9.10;;;3.70;99.90;;;;;;5093791;28;20252;-68
2021/03/06 05:54:27;;;;;;;17.23;9.90;;;3.70;99.90;;;;;;5093954;28;20468;-66
2021/03/06 05:56:54;;;;;;;11.90;8.48;;;3.70;99.90;;;;;;5094037;28;20673;-65
2021/03/06 05:59:22;;;;;;;12.55;8.70;;;3.80;99.90;;;;;;5093463;28;20312;-68
2021/03/06 06:01:48;;;;;;;10.02;7.85;;;3.80;99.90;;;;;;5093641;28;20247;-66
2021/03/06 06:04:16;;;;;;;11.65;9.00;;;3.80;99.90;;;;;;5093712;28;20226;-69
2021/03/06 06:06:42;;;;;;;10.13;8.52;;;3.70;99.90;;;;;;5093536;28;20640;-69
2021/03/06 06:09:08;;;;;;;12.00;8.17;;;3.70;99.90;;;;;;5093643;28;20220;-68
2021/03/06 06:11:35;;;;;;;15.88;9.80;;;3.70;99.90;;;;;;5093458;28;20404;-68
2021/03/06 06:14:03;;;;;;;12.20;8.30;;;3.80;99.90;;;;;;5093364;28;20204;-65
2021/03/06 06:16:32;;;;;;;11.55;8.30;;;3.80;99.90;;;;;;5092192;28;20177;-68
2021/03/06 06:19:01;;;;;;;12.60;10.73;;;3.80;99.90;;;;;;5092024;28;20220;-68
2021/03/06 06:21:49;;;;;;;12.63;8.90;;;3.90;99.90;;;;;;5094266;28;20168;-68
2021/03/06 06:24:19;;;;;;;12.05;8.48;;;3.90;99.90;;;;;;5097596;28;20764;-66
2021/03/06 06:26:57;;;;;;;11.98;8.07;;;3.90;99.90;;;;;;5097341;28;20168;-67
2021/03/06 06:29:38;;;;;;;21.30;15.30;;;4.00;99.90;;;;;;5096081;28;20200;-68
2021/03/06 06:32:06;;;;;;;11.95;8.50;;;3.90;99.90;;;;;;5097161;28;20247;-65
2021/03/06 06:34:32;;;;;;;10.63;8.00;;;4.00;99.90;;;;;;5095836;28;20204;-68
2021/03/06 06:36:57;;;;;;;13.13;9.00;;;4.10;99.90;;;;;;5097189;28;20247;-68
2021/03/06 06:39:30;;;;;;;12.10;8.50;;;4.10;99.90;;;;;;5096769;28;21103;-66
2021/03/06 06:41:58;;;;;;;12.00;8.82;;;4.20;99.90;;;;;;5097059;28;20164;-67
2021/03/06 06:44:25;;;;;;;12.70;8.40;;;4.30;99.90;;;;;;5095498;28;20211;-66
2021/03/06 06:46:52;;;;;;;12.18;8.07;;;4.50;99.90;;;;;;5096826;28;20253;-69
2021/03/06 06:49:19;;;;;;;12.85;9.13;;;4.50;99.90;;;;;;5097040;28;20208;-66
2021/03/06 06:52:04;;;;;;;13.05;9.32;;;4.50;99.90;;;;;;5095465;28;20177;-68
2021/03/06 06:54:31;;;;;;;10.23;7.82;;;4.50;99.90;;;;;;5096664;28;20585;-66
2021/03/06 06:57:07;;;;;;;11.73;8.23;;;4.60;99.90;;;;;;5095428;28;20176;-66
2021/03/06 06:59:32;;;;;;;11.38;8.68;;;4.70;99.90;;;;;;5095352;28;20215;-68
2021/03/06 07:01:58;;;;;;;10.03;8.07;;;4.70;99.90;;;;;;5096628;28;20665;-68
2021/03/06 07:04:24;;;;;;;9.43;7.57;;;4.70;99.90;;;;;;5096791;28;20245;-66
2021/03/06 07:06:59;;;;;;;11.60;8.27;;;4.80;99.90;;;;;;5095612;28;20184;-67
2021/03/06 07:09:24;;;;;;;10.20;7.65;;;4.80;99.90;;;;;;5095743;28;20746;-67
2021/03/06 07:11:50;;;;;;;9.23;7.00;;;4.90;99.90;;;;;;5096473;28;20185;-68
2021/03/06 07:14:36;;;;;;;11.10;8.80;;;5.10;99.90;;;;;;5096263;28;20207;-68
2021/03/06 07:17:03;;;;;;;8.65;6.35;;;5.20;99.90;;;;;;5095748;28;20944;-68
2021/03/06 07:19:30;;;;;;;6.20;5.60;;;5.20;99.90;;;;;;5096490;28;20547;-66
2021/03/06 07:21:58;;;;;;;9.98;5.97;;;5.30;99.90;;;;;;5096311;28;20176;-66
2021/03/06 07:24:25;;;;;;;7.78;6.28;;;5.50;99.90;;;;;;5096011;28;20208;-67
2021/03/06 07:26:54;;;;;;;7.13;5.72;;;5.60;99.90;;;;;;5096199;28;20182;-66
2021/03/06 07:29:21;;;;;;;7.70;5.50;;;5.80;99.90;;;;;;5096325;28;20197;-65
2021/03/06 07:31:50;;;;;;;7.20;5.10;;;5.70;99.90;;;;;;5095432;28;20180;-66
2021/03/06 07:34:17;;;;;;;5.80;5.05;;;5.90;99.90;;;;;;5095973;28;20204;-66
2021/03/06 07:36:45;;;;;;;5.40;4.85;;;6.10;99.00;;;;;;5095937;28;20176;-69
2021/03/06 07:39:13;;;;;;;6.65;5.22;;;6.30;97.80;;;;;;5095490;28;20596;-68
2021/03/06 07:41:41;;;;;;;6.35;5.43;;;6.30;93.90;;;;;;5095874;28;20169;-66
2021/03/06 07:44:11;;;;;;;7.40;6.70;;;6.40;95.80;;;;;;5095408;28;20218;-65
2021/03/06 07:46:39;;;;;;;6.70;5.43;;;6.40;94.60;;;;;;5094402;28;20650;-69
2021/03/06 07:49:12;;;;;;;5.57;4.55;;;6.50;92.90;;;;;;5095791;28;20262;-66
2021/03/06 07:51:41;;;;;;;7.72;5.07;;;6.70;93.70;;;;;;5095273;28;20165;-68
2021/03/06 07:54:09;;;;;;;7.90;5.80;;;6.70;91.40;;;;;;5093146;28;20207;-66
2021/03/06 07:56:37;;;;;;;8.15;4.55;;;7.00;91.90;;;;;;5093852;28;20180;-67
2021/03/06 07:59:03;;;;;;;6.32;5.25;;;7.00;88.40;;;;;;5094566;28;20227;-66
2021/03/06 08:01:33;;;;;;;5.47;4.50;;;6.90;87.60;;;;;;5093306;28;20184;-67
2021/03/06 08:04:00;;;;;;;7.25;4.95;;;7.10;86.90;;;;;;5094749;28;20433;-68
2021/03/06 08:06:27;;;;;;;6.35;5.13;;;7.20;85.30;;;;;;5092838;28;20215;-68
2021/03/06 08:08:54;;;;;;;5.55;4.60;;;7.20;85.20;;;;;;5093578;28;20208;-66
2021/03/06 08:11:19;;;;;;;7.15;5.05;;;7.40;87.60;;;;;;5093489;28;20176;-66
2021/03/06 08:13:48;;;;;;;5.17;4.27;;;7.50;84.10;;;;;;5095180;28;20222;-66
2021/03/06 08:16:23;;;;;;;6.82;4.85;;;7.80;80.20;;;;;;5094222;28;20650;-66
2021/03/06 08:18:58;;;;;;;8.63;5.45;;;8.10;78.80;;;;;;5090890;28;20200;-67
2021/03/06 08:21:31;;;;;;;6.22;3.90;;;8.50;78.10;;;;;;5092571;28;20180;-66
2021/03/06 08:24:24;;;;;;;5.50;4.40;;;9.10;74.60;;;;;;5093656;28;20201;-67
2021/03/06 08:27:01;;;;;;;5.32;4.82;;;9.20;74.50;;;;;;5085308;28;20641;-69
2021/03/06 08:29:27;;;;;;;7.05;5.90;;;9.60;73.60;;;;;;5094650;28;20204;-68
2021/03/06 08:32:06;;;;;;;5.07;4.57;;;10.40;68.70;;;;;;5093362;28;20182;-69
2021/03/06 08:34:32;;;;;;;8.13;4.87;;;10.90;67.80;;;;;;5093076;28;20200;-67
2021/03/06 08:37:15;;;;;;;5.50;4.97;;;10.80;66.90;;;;;;5094298;28;20539;-69
2021/03/06 08:39:45;;;;;;;6.30;5.07;;;11.20;67.30;;;;;;5093428;28;20242;-69
2021/03/06 08:42:13;;;;;;;5.10;4.40;;;11.80;64.80;;;;;;5093398;28;20432;-67
2021/03/06 08:44:39;;;;;;;7.70;5.67;;;12.70;61.60;;;;;;5094183;28;20490;-67
2021/03/06 08:47:06;;;;;;;4.20;3.80;;;12.40;63.30;;;;;;5093278;28;20861;-67
2021/03/06 08:49:32;;;;;;;5.67;5.13;;;12.40;58.50;;;;;;5093222;28;20452;-68
2021/03/06 08:51:58;;;;;;;6.33;4.87;;;12.40;59.80;;;;;;5094470;28;20413;-67
2021/03/06 08:54:25;;;;;;;5.07;4.60;;;12.70;58.50;;;;;;5094625;28;20449;-68
2021/03/06 08:56:51;;;;;;;7.10;5.20;;;12.40;59.10;;;;;;5094388;28;20405;-70
2021/03/06 08:59:17;;;;;;;6.00;5.23;;;11.60;60.80;;;;;;5094265;28;20464;-70
2021/03/06 09:01:45;;;;;;;4.40;4.00;;;12.20;62.30;;;;;;5092775;28;20417;-68
2021/03/06 09:04:12;;;;;;;5.37;4.53;;;13.10;59.40;;;;;;5094425;28;20451;-67
2021/03/06 09:06:42;;;;;;;7.23;5.77;;;13.70;58.60;;;;;;5092782;28;20492;-69
2021/03/06 09:09:10;;;;;;;5.73;4.23;;;12.90;60.00;;;;;;5094333;28;20475;-71
2021/03/06 09:11:54;;;;;;;8.13;6.63;;;12.10;57.90;;;;;;5093995;28;20412;-67
2021/03/06 09:14:20;;;;;;;4.90;4.27;;;11.70;58.50;;;;;;5092732;28;20449;-67
2021/03/06 09:16:49;;;;;;;9.10;4.90;;;11.10;59.70;;;;;;5094011;28;20407;-70
2021/03/06 09:19:29;;;;;;;4.57;4.07;;;11.30;62.40;;;;;;5092655;28;20460;-67
2021/03/06 09:22:01;;;;;;;5.43;4.87;;;12.20;63.00;;;;;;5092589;28;20465;-69
2021/03/06 09:24:50;;;;;;;6.00;4.50;;;12.80;58.10;;;;;;5094185;28;20433;-69
2021/03/06 09:27:16;;;;;;;5.20;3.97;;;13.50;57.10;;;;;;5094066;28;20428;-67
2021/03/06 09:29:43;;;;;;;4.80;4.13;;;13.80;56.80;;;;;;5094135;28;20440;-67
2021/03/06 09:32:10;;;;;;;5.87;4.63;;;14.40;56.80;;;;;;5092518;28;20399;-69
2021/03/06 09:34:36;;;;;;;4.70;4.30;;;15.10;54.80;;;;;;5094030;28;20473;-67
2021/03/06 09:37:16;;;;;;;5.00;4.50;;;16.20;53.50;;;;;;5093735;28;20859;-67
2021/03/06 09:39:41;;;;;;;4.83;4.33;;;17.20;51.90;;;;;;5090949;28;21140;-67
2021/03/06 09:42:08;;;;;;;8.40;7.53;;;17.80;50.80;;;;;;5091721;28;20409;-68
2021/03/06 09:44:34;;;;;;;5.50;5.00;;;18.80;51.00;;;;;;5091838;28;20208;-67
2021/03/06 09:47:01;;;;;;;5.63;4.90;;;17.90;48.90;;;;;;5091683;28;20406;-68
2021/03/06 09:49:36;;;;;;;5.17;4.67;;;17.70;49.30;;;;;;5091441;28;20486;-67
2021/03/06 09:52:02;;;;;;;5.60;5.10;;;17.80;47.90;;;;;;5089980;28;20421;-67
2021/03/06 09:54:35;;;;;;;6.63;5.17;;;17.50;50.30;;;;;;5091674;28;20825;-69
2021/03/06 09:57:03;;;;;;;9.20;5.20;;;17.20;49.50;;;;;;5090598;28;20432;-66
2021/03/06 09:59:38;;;;;;;5.20;4.40;;;18.00;49.00;;;;;;5094954;28;20888;-66
2021/03/06 10:02:09;;;;;;;5.50;5.00;;;16.20;48.30;;;;;;5093631;28;20428;-68
2021/03/06 10:04:35;;;;;;;5.10;4.60;;;13.50;50.90;;;;;;5095705;28;20452;-68
2021/03/06 10:07:10;;;;;;;6.23;4.80;;;12.60;52.80;;;;;;5095620;28;20891;-66
2021/03/06 10:09:36;;;;;;;5.17;4.63;;;12.20;52.70;;;;;;5095818;28;20455;-66
2021/03/06 10:12:08;;;;;;;5.10;4.60;;;11.20;53.90;;;;;;5097154;28;20416;-67
2021/03/06 10:14:34;;;;;;;4.47;4.07;;;10.70;54.40;;;;;;5095963;28;20452;-65
2021/03/06 10:17:06;;;;;;;5.70;4.60;;;10.50;54.80;;;;;;5093413;28;20914;-66
2021/03/06 10:19:43;;;;;;;5.00;4.47;;;10.10;54.80;;;;;;5093817;28;20476;-66
2021/03/06 10:22:11;;;;;;;5.87;4.40;;;10.20;55.10;;;;;;5093990;28;20423;-65
2021/03/06 10:24:49;;;;;;;5.00;4.20;;;10.20;58.50;;;;;;5092551;28;20456;-65
2021/03/06 10:27:16;;;;;;;4.10;3.70;;;10.30;56.20;;;;;;5093790;28;20958;-67
2021/03/06 10:29:41;;;;;;;5.43;4.50;;;10.10;55.10;;;;;;5093129;28;20541;-66
2021/03/06 10:32:07;;;;;;;7.70;6.90;;;10.00;54.50;;;;;;5095514;28;20857;-68
2021/03/06 10:34:35;;;;;;;12.57;8.83;;;9.90;55.30;;;;;;5095804;28;20200;-67
2021/03/06 10:37:11;;;;;;;10.03;8.10;;;9.90;55.90;;;;;;5095345;28;20424;-68
2021/03/06 10:40:03;;;;;;;8.40;6.60;;;9.40;54.70;;;;;;5096571;28;21001;-69
2021/03/06 10:42:47;;;;;;;6.38;5.28;;;9.20;56.50;;;;;;5097068;28;20773;-69
2021/03/06 10:45:27;;;;;;;7.80;6.03;;;9.30;56.20;;;;;;5097644;28;20696;-67
2021/03/06 10:47:55;;;;;;;10.40;8.35;;;9.20;56.90;;;;;;5096819;28;20417;-68
2021/03/06 10:50:27;;;;;;;8.48;6.88;;;9.10;56.40;;;;;;5095268;28;20184;-67
2021/03/06 10:53:14;;;;;;;8.82;5.70;;;8.90;56.80;;;;;;5096884;28;20188;-69
2021/03/06 10:55:39;;;;;;;8.68;5.22;;;8.80;57.10;;;;;;5096811;28;20541;-68
2021/03/06 10:58:06;;;;;;;6.13;4.30;;;8.70;59.40;;;;;;5096558;28;20192;-69
2021/03/06 11:00:32;;;;;;;5.25;4.50;;;8.60;56.60;;;;;;5095331;28;20238;-69
2021/03/06 11:02:59;;;;;;;3.80;3.50;;;8.80;57.90;;;;;;5096573;28;20188;-69
2021/03/06 11:05:26;;;;;;;4.93;4.50;;;9.20;56.90;;;;;;5096648;28;20404;-70
2021/03/06 11:07:52;;;;;;;4.70;3.92;;;9.30;55.40;;;;;;5095678;28;20187;-69
2021/03/06 11:10:20;;;;;;;10.07;6.63;;;9.20;54.00;;;;;;5096389;28;20259;-67
2021/03/06 11:12:53;;;;;;;7.43;6.20;;;9.10;54.80;;;;;;5095018;28;20226;-67
2021/03/06 11:15:22;;;;;;;10.13;8.40;;;8.90;54.90;;;;;;5096857;28;20173;-67
2021/03/06 11:17:55;;;;;;;11.88;8.05;;;8.70;56.20;;;;;;5096292;28;20172;-65
2021/03/06 11:20:29;;;;;;;9.18;7.80;;;8.80;57.00;;;;;;5095170;28;20243;-65
2021/03/06 11:22:55;;;;;;;7.15;6.45;;;8.50;57.40;;;;;;5096252;28;20191;-65
2021/03/06 11:25:22;;;;;;;24.92;15.30;;;8.40;58.40;;;;;;5095624;28;20198;-65
2021/03/06 11:27:54;;;;;;;15.18;8.23;;;8.40;58.10;;;;;;5096062;28;20181;-66
2021/03/06 11:30:47;;;;;;;18.63;10.55;;;8.30;58.30;;;;;;5095029;28;20192;-66
2021/03/06 11:33:18;;;;;;;33.72;19.83;;;8.30;57.40;;;;;;5094258;28;20287;-65
2021/03/06 11:35:45;;;;;;;22.67;14.82;;;8.30;58.10;;;;;;5094654;28;20583;-67
2021/03/06 11:38:12;;;;;;;12.98;10.15;;;8.10;56.50;;;;;;5095750;28;20197;-66
2021/03/06 11:40:44;;;;;;;9.00;7.70;;;8.00;56.90;;;;;;5093927;28;20228;-67
2021/03/06 11:43:11;;;;;;;13.93;10.80;;;8.00;56.70;;;;;;5095718;28;20200;-67
2021/03/06 11:45:37;;;;;;;8.70;7.90;;;8.10;58.20;;;;;;5095868;28;20164;-67
2021/03/06 11:48:04;;;;;;;8.05;6.93;;;8.20;57.70;;;;;;5094120;28;20304;-66
2021/03/06 11:50:33;;;;;;;7.70;6.55;;;8.20;57.60;;;;;;5094803;28;20184;-65
2021/03/06 11:52:59;;;;;;;7.22;6.50;;;8.10;57.00;;;;;;5092933;28;20200;-68
2021/03/06 11:55:25;;;;;;;7.40;6.13;;;8.20;58.20;;;;;;5093935;28;20172;-66
2021/03/06 11:57:51;;;;;;;6.78;6.13;;;8.60;59.30;;;;;;5093560;28;20164;-67
2021/03/06 12:00:22;;;;;;;7.67;6.43;;;9.10;58.30;;;;;;5092037;28;20571;-68
2021/03/06 12:02:49;;;;;;;7.45;6.75;;;9.30;56.30;;;;;;5093517;28;20213;-65
2021/03/06 12:05:14;;;;;;;6.40;5.78;;;9.20;54.90;;;;;;5094065;28;20220;-67
2021/03/06 12:07:41;;;;;;;13.00;8.57;;;9.30;52.90;;;;;;5094258;28;20191;-65
2021/03/06 12:10:10;;;;;;;8.27;7.50;;;9.40;54.20;;;;;;5095192;28;20290;-66
2021/03/06 12:12:35;;;;;;;6.35;5.75;;;9.20;54.50;;;;;;5095252;28;20168;-67
2021/03/06 12:15:02;;;;;;;7.53;6.73;;;9.20;55.30;;;;;;5095750;28;20649;-66
2021/03/06 12:17:28;;;;;;;14.88;11.27;;;9.10;55.30;;;;;;5095132;28;20259;-66
2021/03/06 12:19:54;;;;;;;8.43;7.63;;;8.90;55.30;;;;;;5092901;28;20306;-65
2021/03/06 12:22:19;;;;;;;6.07;5.47;;;9.00;56.60;;;;;;5095087;28;20182;-67
2021/03/06 12:24:46;;;;;;;6.27;5.67;;;8.90;55.50;;;;;;5095302;28;20188;-65
2021/03/06 12:27:12;;;;;;;6.82;6.18;;;8.60;55.00;;;;;;5095071;28;20660;-67
2021/03/06 12:29:38;;;;;;;11.27;8.35;;;9.00;55.50;;;;;;5093697;28;20204;-69
2021/03/06 12:32:05;;;;;;;7.60;6.50;;;8.90;55.90;;;;;;5095089;28;20517;-70
2021/03/06 12:34:30;;;;;;;8.40;7.60;;;8.80;56.20;;;;;;5094661;28;20279;-67
2021/03/06 12:36:56;;;;;;;9.00;8.10;;;8.80;57.20;;;;;;5094895;28;20196;-69
2021/03/06 12:39:22;;;;;;;8.17;7.37;;;8.90;56.90;;;;;;5093147;28;20572;-67
2021/03/06 12:41:49;;;;;;;8.57;7.10;;;9.00;56.20;;;;;;5092415;28;20214;-68
2021/03/06 12:44:15;;;;;;;12.38;9.00;;;8.90;55.80;;;;;;5094015;28;20287;-68
2021/03/06 12:46:40;;;;;;;9.03;8.00;;;8.70;55.00;;;;;;5094581;28;20311;-69
2021/03/06 12:49:06;;;;;;;10.07;7.37;;;8.50;56.00;;;;;;5094393;28;20561;-67
2021/03/06 12:51:32;;;;;;;11.50;9.57;;;8.20;54.70;;;;;;5094579;28;20176;-68
2021/03/06 12:53:57;;;;;;;14.57;11.80;;;8.10;55.60;;;;;;5093525;28;20212;-68
2021/03/06 12:56:23;;;;;;;8.73;6.70;;;8.10;56.10;;;;;;5094497;28;20172;-69
2021/03/06 12:58:49;;;;;;;8.70;7.40;;;8.30;57.60;;;;;;5094219;28;20291;-69
2021/03/06 13:01:15;;;;;;;8.03;7.33;;;8.50;56.10;;;;;;5094152;28;20465;-68